Time,TemperatureF,DewpointF,PressureIn,WindDirection,WindDirectionDegrees,WindSpeedMPH,WindSpeedGustMPH,Humidity,HourlyPrecipIn,Conditions,Clouds,dailyrainin,SolarRadiationWatts/m^2,SoftwareType,DateUTC
2013-10-26 00:02:00,30.0,28.0,-100.00,ENE,76,0.0,3.0,91,0.00,,,0.00,0.000000,,2013-10-26 08:02:00,
2013-10-26 00:11:00,30.0,28.0,-100.00,ENE,76,0.0,3.0,91,0.00,,,0.00,0.000000,,2013-10-26 08:11:00,
2013-10-26 00:22:00,30.0,28.0,-100.00,ENE,76,0.0,3.0,91,0.00,,,0.00,0.000000,,2013-10-26 08:22:00,
2013-10-26 00:52:00,29.0,26.0,-100.00,East,93,0.0,3.0,90,0.00,,,0.00,0.000000,,2013-10-26 08:52:00,
2013-10-26 01:02:00,29.0,26.0,-100.00,East,93,0.0,3.0,90,0.00,,,0.00,0.000000,,2013-10-26 09:02:00,
2013-10-26 01:11:00,29.0,26.0,-100.00,East,93,0.0,3.0,90,0.00,,,0.00,0.000000,,2013-10-26 09:11:00,
2013-10-26 01:22:00,29.0,26.0,-100.00,East,93,0.0,3.0,90,0.00,,,0.00,0.000000,,2013-10-26 09:22:00,
2013-10-26 01:53:00,29.0,27.0,-100.00,NE,37,3.0,4.0,92,0.00,,,0.00,0.000000,,2013-10-26 09:53:00,
2013-10-26 02:03:00,29.0,27.0,-100.00,NE,37,3.0,4.0,92,0.00,,,0.00,0.000000,,2013-10-26 10:03:00,
2013-10-26 02:13:00,29.0,27.0,-100.00,NE,37,3.0,4.0,92,0.00,,,0.00,0.000000,,2013-10-26 10:13:00,
2013-10-26 02:22:00,29.0,27.0,-100.00,NE,37,3.0,4.0,92,0.00,,,0.00,0.000000,,2013-10-26 10:22:00,
2013-10-26 02:53:00,28.0,26.0,-100.00,NE,47,1.0,3.0,93,0.00,,,0.00,0.000000,,2013-10-26 10:53:00,
2013-10-26 03:03:00,28.0,26.0,-100.00,NE,47,1.0,3.0,93,0.00,,,0.00,0.000000,,2013-10-26 11:03:00,
2013-10-26 03:11:00,28.0,26.0,-100.00,NE,47,1.0,3.0,93,0.00,,,0.00,0.000000,,2013-10-26 11:11:00,
2013-10-26 03:21:00,28.0,26.0,-100.00,NE,47,1.0,3.0,93,0.00,,,0.00,0.000000,,2013-10-26 11:21:00,
2013-10-26 03:52:00,27.0,25.0,-100.00,NE,47,0.0,4.0,93,0.00,,,0.00,0.000000,,2013-10-26 11:52:00,
2013-10-26 04:01:00,27.0,25.0,-100.00,NE,47,0.0,4.0,93,0.00,,,0.00,0.000000,,2013-10-26 12:01:00,
2013-10-26 04:12:00,27.0,25.0,-100.00,NE,47,0.0,4.0,93,0.00,,,0.00,0.000000,,2013-10-26 12:12:00,
2013-10-26 04:21:00,27.0,25.0,-100.00,NE,47,0.0,4.0,93,0.00,,,0.00,0.000000,,2013-10-26 12:21:00,
2013-10-26 04:52:00,27.0,25.0,-100.00,NE,36,2.0,3.0,93,0.00,,,-99.99,0.000000,,2013-10-26 12:52:00,
2013-10-26 05:01:00,27.0,25.0,-100.00,NE,36,2.0,3.0,93,0.00,,,-99.99,0.000000,,2013-10-26 13:01:00,
2013-10-26 05:11:00,27.0,25.0,-100.00,NE,36,2.0,3.0,93,0.00,,,-99.99,0.000000,,2013-10-26 13:11:00,
2013-10-26 05:21:00,27.0,25.0,-100.00,NE,36,2.0,3.0,93,0.00,,,-99.99,0.000000,,2013-10-26 13:21:00,
2013-10-26 05:52:00,26.0,24.0,-100.00,NE,50,0.0,3.0,92,0.00,,,0.00,0.000000,,2013-10-26 13:52:00,
2013-10-26 06:01:00,26.0,24.0,-100.00,NE,50,0.0,3.0,92,0.00,,,0.00,0.000000,,2013-10-26 14:01:00,
2013-10-26 06:11:00,26.0,24.0,-100.00,NE,50,0.0,3.0,92,0.00,,,0.00,0.000000,,2013-10-26 14:11:00,
2013-10-26 06:21:00,26.0,24.0,-100.00,NE,50,0.0,3.0,92,0.00,,,0.00,0.000000,,2013-10-26 14:21:00,
2013-10-26 06:52:00,26.0,24.0,-100.00,West,270,0.0,3.0,93,0.00,,,0.00,0.000000,,2013-10-26 14:52:00,
2013-10-26 07:02:00,26.0,24.0,-100.00,West,270,0.0,3.0,93,0.00,,,0.00,0.000000,,2013-10-26 15:02:00,
2013-10-26 07:12:00,26.0,24.0,-100.00,West,270,0.0,3.0,93,0.00,,,0.00,0.000000,,2013-10-26 15:12:00,
2013-10-26 07:23:00,26.0,24.0,-100.00,West,270,0.0,3.0,93,0.00,,,0.00,0.000000,,2013-10-26 15:23:00,
2013-10-26 07:55:00,26.0,24.0,-100.00,ENE,76,0.0,2.0,93,0.00,,,-99.99,0.000000,,2013-10-26 15:55:00,
2013-10-26 08:05:00,26.0,24.0,-100.00,ENE,76,0.0,2.0,93,0.00,,,-99.99,0.000000,,2013-10-26 16:05:00,
2013-10-26 08:14:00,26.0,24.0,-100.00,ENE,76,0.0,2.0,93,0.00,,,-99.99,0.000000,,2013-10-26 16:14:00,
2013-10-26 08:24:00,26.0,24.0,-100.00,ENE,76,0.0,2.0,93,0.00,,,-99.99,0.000000,,2013-10-26 16:24:00,
2013-10-26 08:53:00,26.0,24.0,-100.00,NE,37,3.0,4.0,93,0.00,,,-99.99,0.000000,,2013-10-26 16:53:00,
2013-10-26 09:03:00,26.0,24.0,-100.00,NE,37,3.0,4.0,93,0.00,,,-99.99,0.000000,,2013-10-26 17:03:00,
2013-10-26 09:12:00,26.0,24.0,-100.00,NE,37,3.0,4.0,93,0.00,,,-99.99,0.000000,,2013-10-26 17:12:00,
2013-10-26 09:23:00,26.0,24.0,-100.00,NE,37,3.0,4.0,93,0.00,,,-99.99,0.000000,,2013-10-26 17:23:00,
2013-10-26 09:52:00,25.0,23.0,-100.00,NE,34,0.0,5.0,93,0.00,,,0.00,2.000000,,2013-10-26 17:52:00,
2013-10-26 10:02:00,25.0,23.0,-100.00,NE,34,0.0,5.0,93,0.00,,,0.00,2.000000,,2013-10-26 18:02:00,
2013-10-26 10:12:00,25.0,23.0,-100.00,NE,34,0.0,5.0,93,0.00,,,0.00,2.000000,,2013-10-26 18:12:00,
2013-10-26 10:21:00,25.0,23.0,-100.00,NE,34,0.0,5.0,93,0.00,,,0.00,2.000000,,2013-10-26 18:21:00,
2013-10-26 10:52:00,26.0,25.0,-100.00,North,3,0.0,2.0,94,0.00,,,0.00,19.000000,,2013-10-26 18:52:00,
2013-10-26 11:01:00,26.0,25.0,-100.00,North,3,0.0,2.0,94,0.00,,,0.00,19.000000,,2013-10-26 19:01:00,
2013-10-26 11:12:00,26.0,25.0,-100.00,North,3,0.0,2.0,94,0.00,,,0.00,19.000000,,2013-10-26 19:12:00,
2013-10-26 11:22:00,26.0,25.0,-100.00,North,3,0.0,2.0,94,0.00,,,0.00,19.000000,,2013-10-26 19:22:00,
2013-10-26 11:52:00,30.0,28.0,-100.00,NE,48,1.0,2.0,94,0.00,,,0.00,57.000000,,2013-10-26 19:52:00,
2013-10-26 12:02:00,30.0,28.0,-100.00,NE,48,1.0,2.0,94,0.00,,,0.00,57.000000,,2013-10-26 20:02:00,
2013-10-26 12:12:00,30.0,28.0,-100.00,NE,48,1.0,2.0,94,0.00,,,0.00,57.000000,,2013-10-26 20:12:00,
2013-10-26 12:21:00,30.0,28.0,-100.00,NE,48,1.0,2.0,94,0.00,,,0.00,57.000000,,2013-10-26 20:21:00,
2013-10-26 12:52:00,37.0,34.0,-100.00,NE,38,0.0,5.0,88,0.00,,,0.00,147.000000,,2013-10-26 20:52:00,
2013-10-26 13:02:00,37.0,34.0,-100.00,NE,38,0.0,5.0,88,0.00,,,0.00,147.000000,,2013-10-26 21:02:00,
2013-10-26 13:11:00,37.0,34.0,-100.00,NE,38,0.0,5.0,88,0.00,,,0.00,147.000000,,2013-10-26 21:11:00,
2013-10-26 13:21:00,37.0,34.0,-100.00,NE,38,0.0,5.0,88,0.00,,,0.00,147.000000,,2013-10-26 21:21:00,
2013-10-26 13:54:00,42.0,36.0,-100.00,NNE,19,5.0,10.0,80,0.00,,,0.00,250.000000,,2013-10-26 21:54:00,
2013-10-26 14:03:00,42.0,36.0,-100.00,NNE,19,5.0,10.0,80,0.00,,,0.00,250.000000,,2013-10-26 22:03:00,
2013-10-26 14:13:00,42.0,36.0,-100.00,NNE,19,5.0,10.0,80,0.00,,,0.00,250.000000,,2013-10-26 22:13:00,
2013-10-26 14:23:00,42.0,36.0,-100.00,NNE,19,5.0,10.0,80,0.00,,,0.00,250.000000,,2013-10-26 22:23:00,
2013-10-26 14:54:00,42.0,35.0,-100.00,NE,39,5.0,10.0,77,0.00,,,0.00,213.000000,,2013-10-26 22:54:00,
2013-10-26 15:03:00,42.0,35.0,-100.00,NE,39,5.0,10.0,77,0.00,,,0.00,213.000000,,2013-10-26 23:03:00,
2013-10-26 15:12:00,42.0,35.0,-100.00,NE,39,5.0,10.0,77,0.00,,,0.00,213.000000,,2013-10-26 23:12:00,
2013-10-26 15:22:00,42.0,35.0,-100.00,NE,39,5.0,10.0,77,0.00,,,0.00,213.000000,,2013-10-26 23:22:00,
2013-10-26 15:52:00,43.0,36.0,-100.00,NE,38,7.0,11.0,75,0.00,,,0.00,187.000000,,2013-10-26 23:52:00,
2013-10-26 16:01:00,43.0,36.0,-100.00,NE,38,7.0,11.0,75,0.00,,,0.00,187.000000,,2013-10-27 00:01:00,
2013-10-26 16:11:00,43.0,36.0,-100.00,NE,38,7.0,11.0,75,0.00,,,0.00,187.000000,,2013-10-27 00:11:00,
2013-10-26 16:21:00,43.0,36.0,-100.00,NE,38,7.0,11.0,75,0.00,,,0.00,187.000000,,2013-10-27 00:21:00,
2013-10-26 16:52:00,41.0,35.0,-100.00,NNE,26,4.0,13.0,78,0.00,,,0.00,98.000000,,2013-10-27 00:52:00,
2013-10-26 17:01:00,41.0,35.0,-100.00,NNE,26,4.0,13.0,78,0.00,,,0.00,98.000000,,2013-10-27 01:01:00,
2013-10-26 17:11:00,41.0,35.0,-100.00,NNE,26,4.0,13.0,78,0.00,,,0.00,98.000000,,2013-10-27 01:11:00,
2013-10-26 17:22:00,41.0,35.0,-100.00,NNE,26,4.0,13.0,78,0.00,,,0.00,98.000000,,2013-10-27 01:22:00,
2013-10-26 17:52:00,38.0,32.0,-100.00,NNE,21,4.0,11.0,80,0.00,,,0.00,46.000000,,2013-10-27 01:52:00,
2013-10-26 18:02:00,38.0,32.0,-100.00,NNE,21,4.0,11.0,80,0.00,,,0.00,46.000000,,2013-10-27 02:02:00,
2013-10-26 18:12:00,38.0,32.0,-100.00,NNE,21,4.0,11.0,80,0.00,,,0.00,46.000000,,2013-10-27 02:12:00,
2013-10-26 18:21:00,38.0,32.0,-100.00,NNE,21,4.0,11.0,80,0.00,,,0.00,46.000000,,2013-10-27 02:21:00,
2013-10-26 18:52:00,36.0,32.0,-100.00,NE,37,5.0,10.0,84,0.00,,,0.00,11.000000,,2013-10-27 02:52:00,
2013-10-26 19:02:00,36.0,32.0,-100.00,NE,37,5.0,10.0,84,0.00,,,0.00,11.000000,,2013-10-27 03:02:00,
2013-10-26 19:11:00,36.0,32.0,-100.00,NE,37,5.0,10.0,84,0.00,,,0.00,11.000000,,2013-10-27 03:11:00,
2013-10-26 19:21:00,36.0,32.0,-100.00,NE,37,5.0,10.0,84,0.00,,,0.00,11.000000,,2013-10-27 03:21:00,
2013-10-26 19:55:00,36.0,32.0,-100.00,NNE,27,2.0,8.0,86,0.00,,,0.00,0.000000,,2013-10-27 03:55:00,
2013-10-26 20:02:00,-999.0,-99.9,-100.00,NNE,27,2.0,8.0,-999,-99.99,,,-99.99,0.000000,,2013-10-27 04:02:00,
2013-10-26 20:13:00,36.0,32.0,-100.00,NNE,27,2.0,8.0,86,0.00,,,0.00,0.000000,,2013-10-27 04:13:00,
2013-10-26 20:24:00,36.0,32.0,-100.00,NNE,27,2.0,8.0,86,0.00,,,0.00,0.000000,,2013-10-27 04:24:00,
2013-10-26 20:54:00,36.0,32.0,-100.00,NNE,33,4.0,10.0,85,0.00,,,0.00,0.000000,,2013-10-27 04:54:00,
2013-10-26 21:04:00,36.0,32.0,-100.00,NNE,33,4.0,10.0,85,0.00,,,0.00,0.000000,,2013-10-27 05:04:00,
2013-10-26 21:12:00,36.0,32.0,-100.00,NNE,33,4.0,10.0,85,0.00,,,0.00,0.000000,,2013-10-27 05:12:00,
2013-10-26 21:23:00,36.0,32.0,-100.00,NNE,33,4.0,10.0,85,0.00,,,0.00,0.000000,,2013-10-27 05:23:00,
2013-10-26 21:52:00,36.0,31.0,-100.00,NNE,29,4.0,9.0,81,0.00,,,0.00,0.000000,,2013-10-27 05:52:00,
2013-10-26 22:01:00,36.0,31.0,-100.00,NNE,29,4.0,9.0,81,0.00,,,0.00,0.000000,,2013-10-27 06:01:00,
2013-10-26 22:13:00,36.0,31.0,-100.00,NNE,29,4.0,9.0,81,0.00,,,0.00,0.000000,,2013-10-27 06:13:00,
2013-10-26 22:21:00,36.0,31.0,-100.00,NNE,29,4.0,9.0,81,0.00,,,0.00,0.000000,,2013-10-27 06:21:00,
2013-10-26 22:53:00,36.0,30.0,-100.00,NE,45,4.0,8.0,80,0.00,,,0.00,0.000000,,2013-10-27 06:53:00,
2013-10-26 23:02:00,36.0,30.0,-100.00,NE,45,4.0,8.0,80,0.00,,,0.00,0.000000,,2013-10-27 07:02:00,
2013-10-26 23:11:00,36.0,30.0,-100.00,NE,45,4.0,8.0,80,0.00,,,0.00,0.000000,,2013-10-27 07:11:00,
2013-10-26 23:21:00,36.0,30.0,-100.00,NE,45,4.0,8.0,80,0.00,,,0.00,0.000000,,2013-10-27 07:21:00,
2013-10-26 23:52:00,37.0,31.0,-100.00,NE,51,2.0,8.0,79,0.00,,,0.00,0.000000,,2013-10-27 07:52:00,